Time;durP1;ratioP1;P1;durP2;ratioP2;P2;SDS_P1;SDS_P2;PMS_P1;PMS_P2;Temp;Humidity;BMP_temperature;BMP_pressure;BME280_temperature;BME280_humidity;BME280_pressure;Samples;Min_cycle;Max_cycle;Signal;HPM_P1;HPM_P2
2021/06/12 00:03:38;;;;;;;17.60;10.53;;;;;;;17.61;74.30;100411.40;3499543;81;26384;-90
2021/06/12 00:08:39;;;;;;;14.13;10.17;;;;;;;17.66;74.31;100419.27;3496931;80;98933;-91
2021/06/12 00:13:40;;;;;;;15.67;10.27;;;;;;;17.68;74.59;100425.98;3501175;81;30779;-89
2021/06/12 00:18:41;;;;;;;16.77;11.43;;;;;;;17.73;74.24;100420.52;3503449;80;98530;-89
2021/06/12 00:23:42;;;;;;;15.50;10.15;;;;;;;17.76;74.60;100426.64;3510329;82;30404;-90
2021/06/12 00:28:45;;;;;;;14.87;10.38;;;;;;;17.72;74.69;100419.72;3501494;81;99216;-90
2021/06/12 00:33:46;;;;;;;20.35;11.97;;;;;;;17.70;73.93;100431.09;3510200;81;31677;-91
2021/06/12 00:38:48;;;;;;;16.53;9.97;;;;;;;17.69;74.67;100433.11;3545153;79;99290;-91
2021/06/12 00:43:49;;;;;;;13.00;9.08;;;;;;;17.67;74.63;100431.96;3571436;81;32316;-90
2021/06/12 00:48:52;;;;;;;18.05;11.18;;;;;;;17.66;74.52;100416.48;3563917;80;98738;-91
2021/06/12 00:53:53;;;;;;;15.43;9.93;;;;;;;17.65;74.73;100420.48;3568247;81;31721;-91
2021/06/12 00:59:00;;;;;;;16.87;10.33;;;;;;;17.62;74.93;100425.48;3558227;80;98764;-91
2021/06/12 01:04:07;;;;;;;15.43;10.08;;;;;;;17.59;75.07;100420.17;3563223;81;32315;-91
2021/06/12 01:09:08;;;;;;;14.43;9.05;;;;;;;17.59;75.22;100419.36;3549088;81;99280;-91
2021/06/12 01:14:17;;;;;;;10.63;8.07;;;;;;;17.57;75.19;100417.03;3567126;81;30223;-91
2021/06/12 01:19:40;;;;;;;12.70;8.70;;;;;;;17.57;75.28;100419.02;3563193;79;98727;-90
2021/06/12 01:25:07;;;;;;;15.40;8.95;;;;;;;17.59;74.98;100411.81;3569992;81;31688;-91
2021/06/12 01:30:22;;;;;;;14.47;8.28;;;;;;;17.56;75.16;100395.19;3554989;81;99135;-91
2021/06/12 01:35:32;;;;;;;16.03;9.80;;;;;;;17.56;75.09;100392.41;3568656;80;26765;-91
2021/06/12 01:40:40;;;;;;;14.65;8.95;;;;;;;17.56;74.99;100393.17;3559647;80;98907;-91
2021/06/12 01:45:44;;;;;;;11.45;8.68;;;;;;;17.52;75.10;100385.52;3570124;81;31682;-91
2021/06/12 01:50:45;;;;;;;11.78;8.35;;;;;;;17.44;75.31;100374.31;3565044;80;98702;-90
2021/06/12 01:55:48;;;;;;;11.20;8.00;;;;;;;17.42;75.31;100367.59;3559053;81;32235;-90
2021/06/12 02:00:51;;;;;;;11.97;8.23;;;;;;;17.38;74.90;100369.05;3559706;80;99089;-91
2021/06/12 02:05:54;;;;;;;10.30;7.08;;;;;;;17.35;74.89;100358.76;3573939;80;32299;-90
2021/06/12 02:10:55;;;;;;;14.40;8.93;;;;;;;17.34;74.32;100346.66;3564509;81;99107;-90
2021/06/12 02:15:58;;;;;;;9.93;7.33;;;;;;;17.31;74.41;100335.77;3569571;81;32224;-90
2021/06/12 02:21:02;;;;;;;12.30;8.13;;;;;;;17.29;73.89;100340.98;3555490;81;99014;-90
2021/06/12 02:26:06;;;;;;;11.93;7.33;;;;;;;17.27;73.54;100330.88;3555036;81;32258;-90
2021/06/12 02:31:15;;;;;;;12.58;8.70;;;;;;;17.23;74.01;100337.09;3554070;81;98935;-90
2021/06/12 02:36:16;;;;;;;11.93;7.58;;;;;;;17.13;74.36;100331.13;3560902;81;32232;-90
2021/06/12 02:41:17;;;;;;;11.70;8.03;;;;;;;17.05;74.88;100333.83;3560918;81;98841;-90
2021/06/12 02:46:23;;;;;;;13.23;8.17;;;;;;;16.96;75.21;100336.36;3568098;80;31489;-90
2021/06/12 02:51:26;;;;;;;12.15;7.67;;;;;;;16.89;75.49;100339.26;3536422;81;99001;-90
2021/06/12 02:56:27;;;;;;;11.30;7.53;;;;;;;16.82;75.97;100344.94;3570077;81;31650;-90
2021/06/12 03:01:30;;;;;;;15.32;9.23;;;;;;;16.81;76.60;100341.98;3537539;80;98900;-90
2021/06/12 03:06:31;;;;;;;13.03;9.05;;;;;;;16.83;76.83;100333.20;3571249;80;31704;-90
2021/06/12 03:11:39;;;;;;;14.25;8.93;;;;;;;16.83;76.50;100327.64;3559818;80;98833;-90
2021/06/12 03:16:43;;;;;;;11.85;8.33;;;;;;;16.83;76.99;100314.54;3574294;80;32811;-90
2021/06/12 03:21:45;;;;;;;13.93;9.75;;;;;;;16.85;77.16;100324.63;3555285;81;99013;-90
2021/06/12 03:26:47;;;;;;;12.13;8.75;;;;;;;16.82;77.22;100319.92;3568201;80;31689;-90
2021/06/12 03:31:48;;;;;;;13.18;9.85;;;;;;;16.86;77.36;100323.44;3565508;81;98863;-91
2021/06/12 03:36:51;;;;;;;16.40;10.32;;;;;;;16.91;77.74;100322.17;3552404;81;29805;-90
2021/06/12 03:41:54;;;;;;;16.60;10.50;;;;;;;16.95;77.94;100320.89;3490804;79;98954;-90
2021/06/12 03:46:56;;;;;;;14.15;9.78;;;;;;;17.01;78.03;100321.20;3496346;82;31679;-91
2021/06/12 03:51:59;;;;;;;13.40;9.48;;;;;;;17.07;78.20;100320.91;3496572;81;98947;-90
2021/06/12 03:57:00;;;;;;;14.87;10.95;;;;;;;17.16;78.39;100316.98;3500036;82;30160;-91
2021/06/12 04:02:02;;;;;;;13.20;9.00;;;;;;;17.25;77.63;100308.86;3495790;80;98936;-90
2021/06/12 04:07:05;;;;;;;13.55;9.70;;;;;;;17.37;78.01;100307.64;3496288;82;31665;-90
2021/06/12 04:12:07;;;;;;;14.33;10.63;;;;;;;17.49;78.27;100301.48;3494378;80;99066;-90
2021/06/12 04:17:08;;;;;;;14.33;9.38;;;;;;;17.62;78.17;100305.22;3497776;82;32216;-90
2021/06/12 04:22:10;;;;;;;16.00;10.08;;;;;;;17.93;78.50;100299.59;3491979;80;98511;-90
2021/06/12 04:27:10;;;;;;;13.10;9.20;;;;;;;17.93;78.50;100299.59;3503943;82;31879;-90
2021/06/12 04:32:11;;;;;;;12.70;9.23;;;;;;;18.11;77.90;100313.95;3483753;80;99055;-90
2021/06/12 04:37:13;;;;;;;12.90;9.70;;;;;;;18.28;77.57;100305.02;3505831;81;29943;-90
2021/06/12 04:42:14;;;;;;;12.05;8.55;;;;;;;18.45;77.42;100303.86;3549453;80;98562;-90
2021/06/12 04:47:15;;;;;;;18.05;8.83;;;;;;;18.59;77.05;100297.34;3564139;80;25977;-90
2021/06/12 04:52:15;;;;;;;14.93;11.10;;;;;;;18.78;76.60;100304.87;3553446;78;98764;-90
2021/06/12 04:57:16;;;;;;;16.02;11.25;;;;;;;18.97;75.94;100292.83;3567253;80;26017;-90
2021/06/12 05:02:18;;;;;;;12.70;10.48;;;;;;;19.20;74.93;100281.49;3565582;79;98905;-90
2021/06/12 05:07:19;;;;;;;17.23;10.45;;;;;;;19.45;74.29;100278.84;3567642;80;26745;-91
2021/06/12 05:12:20;;;;;;;17.73;10.38;;;;;;;19.73;73.64;100273.09;3561801;81;99073;-90
2021/06/12 05:17:21;;;;;;;15.93;10.43;;;;;;;20.04;72.73;100268.55;3550033;81;35322;-92
2021/06/12 05:22:27;;;;;;;13.95;10.28;;;;;;;20.36;71.63;100269.80;3568455;81;99204;-90
2021/06/12 05:27:28;;;;;;;14.60;9.98;;;;;;;20.66;70.87;100260.22;3541715;81;26056;-90
2021/06/12 05:32:29;;;;;;;17.12;10.50;;;;;;;20.95;69.65;100263.70;3557961;81;98917;-90
2021/06/12 05:37:30;;;;;;;14.83;10.60;;;;;;;21.24;69.15;100255.09;3566686;81;35338;-91
2021/06/12 05:42:31;;;;;;;13.30;8.60;;;;;;;21.52;68.05;100251.30;3558465;81;98952;-91
2021/06/12 05:47:32;;;;;;;12.33;8.98;;;;;;;21.66;67.41;100252.17;3562140;80;35485;-90
2021/06/12 05:52:39;;;;;;;14.28;8.45;;;;;;;21.89;67.09;100245.52;3533676;81;98857;-91
2021/06/12 05:57:40;;;;;;;10.60;7.37;;;;;;;22.23;66.76;100256.59;3561674;81;35434;-92
2021/06/12 06:02:41;;;;;;;10.15;7.75;;;;;;;22.55;65.40;100254.73;3555555;80;98393;-91
2021/06/12 06:07:41;;;;;;;14.25;8.23;;;;;;;22.83;64.05;100247.95;3536705;81;35423;-92
2021/06/12 06:12:42;;;;;;;12.28;7.12;;;;;;;23.12;62.41;100232.90;3554936;79;98787;-94
2021/06/12 06:17:44;;;;;;;9.53;5.67;;;;;;;23.44;61.91;100220.29;3561130;81;34356;-91
2021/06/12 06:22:45;;;;;;;11.50;6.78;;;;;;;23.83;61.78;100223.50;3570111;80;34807;-91
2021/06/12 06:27:45;;;;;;;10.23;5.72;;;;;;;24.25;60.55;100220.13;3563427;80;99103;-89
2021/06/12 06:32:47;;;;;;;9.03;5.15;;;;;;;24.59;59.08;100219.69;3563965;81;35573;-89
2021/06/12 06:37:48;;;;;;;10.93;5.90;;;;;;;24.76;57.85;100227.25;3559066;81;98447;-87
2021/06/12 06:42:49;;;;;;;11.97;6.05;;;;;;;24.83;56.60;100223.28;3508620;82;35460;-89
2021/06/12 06:47:50;;;;;;;11.70;6.33;;;;;;;24.88;55.54;100210.75;3497530;82;99082;-89
2021/06/12 06:52:51;;;;;;;9.70;5.97;;;;;;;25.00;55.67;100203.30;3499614;81;32697;-88
2021/06/12 06:57:52;;;;;;;10.08;5.45;;;;;;;25.12;55.05;100198.83;3498844;81;98551;-90
2021/06/12 07:02:54;;;;;;;11.25;5.45;;;;;;;25.20;55.32;100203.47;3506618;81;33168;-91
2021/06/12 07:07:55;;;;;;;10.32;6.37;;;;;;;25.41;54.36;100197.53;3486907;79;99034;-90
2021/06/12 07:13:03;;;;;;;10.68;5.55;;;;;;;25.55;52.78;100194.59;3505210;82;33206;-88
2021/06/12 07:18:04;;;;;;;9.73;6.00;;;;;;;25.56;52.87;100194.08;3484827;81;99372;-86
2021/06/12 07:23:05;;;;;;;9.05;5.22;;;;;;;25.59;53.04;100198.77;3516650;81;32907;-90
2021/06/12 07:28:06;;;;;;;14.47;6.28;;;;;;;25.49;52.74;100194.47;3502473;82;98736;-89
2021/06/12 07:33:14;;;;;;;9.25;6.50;;;;;;;25.36;53.19;100191.78;3499251;81;33059;-90
2021/06/12 07:38:15;;;;;;;10.55;6.45;;;;;;;25.32;53.16;100194.00;3503589;80;98895;-89
2021/06/12 07:43:19;;;;;;;11.45;6.72;;;;;;;25.07;53.21;100196.67;3557775;81;32397;-90
2021/06/12 07:48:20;;;;;;;10.57;7.23;;;;;;;24.87;53.80;100202.16;3466364;81;99162;-90
2021/06/12 07:53:22;;;;;;;11.08;6.75;;;;;;;24.64;54.48;100209.19;3421428;84;32532;-87
2021/06/12 07:58:22;;;;;;;11.80;8.15;;;;;;;24.39;55.22;100206.16;3409333;83;98798;-89
2021/06/12 08:03:30;;;;;;;13.35;8.38;;;;;;;24.26;55.14;100211.84;3423447;84;32546;-85
2021/06/12 08:08:31;;;;;;;12.40;7.90;;;;;;;24.02;54.64;100208.16;3397200;85;99112;-85
2021/06/12 08:13:32;;;;;;;13.75;7.83;;;;;;;23.60;55.57;100210.13;3459340;83;32464;-88
2021/06/12 08:18:34;;;;;;;12.58;8.60;;;;;;;23.25;55.94;100215.30;3465507;82;99187;-89
2021/06/12 08:23:36;;;;;;;11.45;7.47;;;;;;;23.10;56.31;100219.94;3513908;82;33141;-89
2021/06/12 08:28:39;;;;;;;12.65;8.33;;;;;;;22.99;56.90;100229.44;3400836;82;99063;-87
2021/06/12 08:33:53;;;;;;;11.88;8.13;;;;;;;22.89;57.47;100228.50;3467127;83;32470;-88
2021/06/12 08:38:56;;;;;;;15.03;8.30;;;;;;;22.80;58.29;100217.24;3441340;81;100030;-86
2021/06/12 08:44:11;;;;;;;10.35;7.10;;;;;;;22.75;58.86;100222.86;3459617;82;33087;-87
2021/06/12 08:49:12;;;;;;;10.88;7.45;;;;;;;22.67;59.58;100233.44;3446122;82;99400;-85
2021/06/12 08:54:19;;;;;;;10.32;7.17;;;;;;;22.47;60.61;100227.44;3450026;83;32463;-87
2021/06/12 08:59:24;;;;;;;10.88;7.62;;;;;;;22.30;61.44;100215.68;3456075;80;99313;-83
2021/06/12 09:04:45;;;;;;;11.43;7.97;;;;;;;22.13;62.36;100212.17;3429787;83;27666;-89
2021/06/12 09:09:58;;;;;;;13.20;7.95;;;;;;;22.02;62.92;100215.38;3450363;82;98657;-88
2021/06/12 09:15:12;;;;;;;12.53;8.73;;;;;;;21.90;64.35;100205.04;3447785;83;32665;-88
2021/06/12 09:20:31;;;;;;;11.03;8.87;;;;;;;21.86;65.08;100203.63;3433747;81;98685;-88
2021/06/12 09:25:42;;;;;;;11.65;8.53;;;;;;;21.90;65.96;100209.87;3443152;82;32595;-86
2021/06/12 09:30:44;;;;;;;11.25;8.28;;;;;;;21.77;66.18;100202.16;3435156;83;99570;-86
2021/06/12 09:35:45;;;;;;;10.70;7.12;;;;;;;21.76;66.90;100210.41;3441278;83;32529;-86
2021/06/12 09:40:45;;;;;;;11.05;7.60;;;;;;;21.71;67.12;100198.39;3434576;83;99145;-87
2021/06/12 09:45:46;;;;;;;11.35;7.40;;;;;;;21.84;67.57;100201.27;3448501;83;33442;-86
2021/06/12 09:50:48;;;;;;;9.78;7.10;;;;;;;21.97;67.81;100201.95;3443981;81;99531;-86
2021/06/12 09:55:50;;;;;;;10.45;7.67;;;;;;;22.03;67.83;100200.14;3445350;83;33686;-85
2021/06/12 10:00:51;;;;;;;11.50;6.95;;;;;;;22.07;67.69;100206.37;3438386;80;99207;-86
2021/06/12 10:06:23;;;;;;;9.50;6.97;;;;;;;22.09;67.81;100199.70;3428403;83;34012;-86
2021/06/12 10:11:27;;;;;;;9.55;6.55;;;;;;;22.08;68.02;100201.55;3430639;82;99084;-86
2021/06/12 10:16:31;;;;;;;11.25;6.78;;;;;;;22.16;68.27;100198.02;3436506;83;33007;-86
2021/06/12 10:21:32;;;;;;;9.93;6.90;;;;;;;22.15;68.09;100192.86;3428562;81;98856;-85
2021/06/12 10:26:34;;;;;;;10.30;6.70;;;;;;;22.14;68.23;100203.92;3443084;83;32447;-85
2021/06/12 10:31:37;;;;;;;8.90;6.37;;;;;;;22.19;68.17;100195.67;3437088;82;98846;-84
2021/06/12 10:36:41;;;;;;;14.50;7.92;;;;;;;22.21;68.47;100193.81;3447550;83;33359;-85
2021/06/12 10:41:41;;;;;;;10.68;7.17;;;;;;;22.33;68.42;100196.52;3446098;81;99080;-85
2021/06/12 10:46:46;;;;;;;11.22;7.00;;;;;;;22.26;68.47;100198.82;3464581;83;32761;-85
2021/06/12 10:51:47;;;;;;;8.53;6.15;;;;;;;22.20;68.79;100191.65;3460393;82;99290;-90
2021/06/12 10:57:15;;;;;;;10.18;6.45;;;;;;;22.13;68.98;100177.13;3515245;81;33250;-85
2021/06/12 11:07:37;;;;;;;8.48;6.12;;;;;;;21.86;69.73;100152.55;3430922;83;33766;-87
2021/06/12 11:12:43;;;;;;;9.60;7.20;;;;;;;21.87;70.23;100140.73;3402268;83;98752;-87
2021/06/12 11:17:44;;;;;;;8.93;6.45;;;;;;;21.86;70.89;100130.77;3464259;83;28198;-89
2021/06/12 11:23:00;;;;;;;8.38;5.87;;;;;;;21.89;71.60;100125.02;3464279;83;32489;-87
2021/06/12 11:28:31;;;;;;;10.75;6.53;;;;;;;22.01;71.28;100105.91;3462126;82;99023;-87
2021/06/12 11:33:32;;;;;;;9.75;6.75;;;;;;;22.12;70.75;100102.06;3463291;83;27340;-88
2021/06/12 11:38:37;;;;;;;10.08;7.03;;;;;;;22.20;70.26;100096.94;3459877;83;98997;-87
2021/06/12 11:43:42;;;;;;;10.03;7.33;;;;;;;22.29;69.93;100102.58;3434412;83;32546;-85
2021/06/12 11:48:47;;;;;;;12.10;7.47;;;;;;;22.33;69.74;100089.97;3417757;83;99473;-83
2021/06/12 11:54:15;;;;;;;9.30;6.50;;;;;;;22.30;69.64;100091.52;3420060;84;27600;-86
2021/06/12 11:59:20;;;;;;;9.20;6.28;;;;;;;22.32;69.65;100084.20;3419828;84;99161;-86
2021/06/12 12:04:22;;;;;;;8.57;6.13;;;;;;;22.40;69.50;100079.84;3426773;84;27499;-86
2021/06/12 12:09:43;;;;;;;9.25;5.97;;;;;;;22.49;69.33;100063.67;3410054;83;98980;-86
2021/06/12 12:14:47;;;;;;;8.70;5.95;;;;;;;22.56;69.45;100060.59;3421932;84;32624;-87
2021/06/12 12:20:05;;;;;;;8.50;5.95;;;;;;;22.65;68.76;100034.70;3392113;83;99074;-87
2021/06/12 12:25:10;;;;;;;9.28;5.22;;;;;;;22.67;68.39;100028.00;3421625;84;32609;-87
2021/06/12 12:30:12;;;;;;;7.08;4.70;;;;;;;22.67;67.99;100018.82;3417684;84;98863;-88
2021/06/12 12:35:17;;;;;;;7.90;5.08;;;;;;;22.59;67.57;100007.74;3416536;84;55316;-87
2021/06/12 12:40:22;;;;;;;7.43;5.03;;;;;;;22.60;68.07;100005.88;3412774;83;99084;-85
2021/06/12 12:45:22;;;;;;;7.58;4.55;;;;;;;22.60;67.94;99993.26;3410136;83;32403;-85
2021/06/12 12:50:24;;;;;;;7.00;4.28;;;;;;;22.45;68.27;99996.53;3418156;83;98540;-88
2021/06/12 12:55:25;;;;;;;6.25;4.20;;;;;;;22.31;68.64;99999.15;3415393;84;33024;-84
2021/06/12 13:00:30;;;;;;;7.05;4.28;;;;;;;22.08;69.02;100003.32;3411985;84;99231;-85
2021/06/12 13:05:39;;;;;;;9.85;4.75;;;;;;;21.88;69.84;100005.00;3393332;84;32563;-88
2021/06/12 13:10:49;;;;;;;11.18;3.02;;;;;;;21.54;71.00;100077.99;3413128;83;99054;-89
2021/06/12 13:15:56;;;;;;;8.25;3.10;;;;;;;20.72;71.54;100068.88;3415828;84;32508;-90
2021/06/12 13:21:10;;;;;;;8.23;2.95;;;;;;;20.17;72.49;100073.80;3436665;83;98801;-91
2021/06/12 13:26:20;;;;;;;7.95;3.40;;;;;;;19.61;73.66;100048.46;3484226;83;32527;-93
2021/06/12 13:31:23;;;;;;;6.37;3.25;;;;;;;19.25;74.51;100045.22;3480334;81;98911;-88
2021/06/12 13:36:24;;;;;;;7.28;3.40;;;;;;;19.20;75.37;100046.34;3487242;82;32505;-93
2021/06/12 13:41:26;;;;;;;10.35;3.55;;;;;;;19.20;75.28;100054.70;3502875;81;98843;-90
2021/06/12 13:46:27;;;;;;;7.92;3.83;;;;;;;19.20;75.04;100052.71;3570655;81;33544;-95
2021/06/12 13:51:28;;;;;;;8.00;3.90;;;;;;;19.18;74.72;100047.41;3564196;80;98394;-96
2021/06/12 13:56:29;;;;;;;7.22;3.50;;;;;;;19.09;74.63;100060.61;3570189;81;33747;-94
2021/06/12 14:01:30;;;;;;;6.72;3.05;;;;;;;19.06;74.52;100048.93;3565357;81;98791;-94
2021/06/12 14:06:31;;;;;;;6.60;3.62;;;;;;;19.01;74.26;100044.53;3566544;80;33114;-94
2021/06/12 14:11:32;;;;;;;7.67;3.77;;;;;;;18.99;74.46;100051.14;3555717;81;98529;-93
2021/06/12 14:16:33;;;;;;;7.05;3.40;;;;;;;18.97;74.26;100039.03;3570178;80;27824;-92
2021/06/12 14:21:34;;;;;;;7.40;3.85;;;;;;;18.93;74.35;100036.98;3559596;78;98820;-92
2021/06/12 14:26:35;;;;;;;6.83;3.65;;;;;;;18.92;74.49;100044.38;3570747;80;28788;-92
2021/06/12 14:31:36;;;;;;;7.30;3.65;;;;;;;18.91;74.53;100043.59;3563105;81;98832;-92
2021/06/12 14:36:38;;;;;;;8.77;4.60;;;;;;;18.91;75.11;100035.22;3572675;81;25974;-91
2021/06/12 14:41:43;;;;;;;8.75;4.58;;;;;;;18.88;75.69;100029.75;3560792;80;98962;-92
2021/06/12 14:46:45;;;;;;;7.85;4.45;;;;;;;18.94;76.37;100036.34;3569399;81;25843;-92
2021/06/12 14:51:46;;;;;;;6.37;4.30;;;;;;;18.94;76.72;100022.41;3556499;81;98930;-92
2021/06/12 14:56:47;;;;;;;10.30;4.87;;;;;;;18.94;77.22;100021.01;3568066;81;25723;-92
2021/06/12 15:01:48;;;;;;;7.87;5.20;;;;;;;18.88;77.19;100033.94;3568043;80;98947;-92
2021/06/12 15:06:49;;;;;;;9.20;5.43;;;;;;;18.84;77.61;100038.22;3571309;81;25906;-93
2021/06/12 15:11:50;;;;;;;6.53;4.23;;;;;;;18.78;78.06;100012.11;3560107;80;98667;-92
2021/06/12 15:16:50;;;;;;;7.30;4.47;;;;;;;18.70;77.75;100005.79;3552944;81;33843;-92
2021/06/12 15:21:51;;;;;;;7.37;4.57;;;;;;;18.74;77.79;100010.66;3547418;81;98627;-92
2021/06/12 15:26:52;;;;;;;7.73;4.73;;;;;;;18.71;77.93;100016.51;3550304;80;33759;-95
2021/06/12 15:31:53;;;;;;;7.15;4.50;;;;;;;18.67;77.81;100022.78;3555365;80;98945;-94
2021/06/12 15:36:54;;;;;;;7.20;4.63;;;;;;;18.57;77.67;100028.04;3563124;80;26740;-94
2021/06/12 15:41:55;;;;;;;6.97;4.70;;;;;;;18.50;77.95;100029.64;3561681;80;98831;-94
2021/06/12 15:46:57;;;;;;;8.23;4.77;;;;;;;18.46;78.22;100031.73;3563256;81;26601;-92
2021/06/12 15:51:58;;;;;;;7.97;4.90;;;;;;;18.39;78.07;100033.33;3563857;80;98846;-90
2021/06/12 15:56:59;;;;;;;7.60;4.17;;;;;;;18.31;78.37;100041.65;3569108;81;27522;-93
2021/06/12 16:01:59;;;;;;;8.90;4.97;;;;;;;18.18;78.72;100056.14;3562679;81;98921;-88
2021/06/12 16:07:00;;;;;;;8.43;5.20;;;;;;;17.98;78.58;100059.62;3565248;81;31399;-95
2021/06/12 16:12:02;;;;;;;9.97;5.80;;;;;;;17.87;79.13;100077.19;3559794;80;98997;-91
2021/06/12 16:17:03;;;;;;;8.10;4.83;;;;;;;17.84;79.28;100098.16;3570233;81;32395;-88
2021/06/12 16:22:04;;;;;;;11.27;5.37;;;;;;;17.69;79.88;100062.92;3568738;80;99189;-89
2021/06/12 16:27:05;;;;;;;10.23;6.03;;;;;;;17.62;80.40;100051.96;3573083;81;32175;-93
2021/06/12 16:32:07;;;;;;;9.23;5.90;;;;;;;17.59;81.05;100070.11;3562569;80;99263;-87
2021/06/12 16:37:08;;;;;;;9.30;6.03;;;;;;;17.54;81.44;100082.55;3566655;81;32381;-87
2021/06/12 16:42:09;;;;;;;10.77;5.93;;;;;;;17.59;82.45;100082.04;3550425;81;98793;-86
2021/06/12 16:47:10;;;;;;;9.17;5.90;;;;;;;17.60;82.97;100080.81;3494837;82;32271;-88
2021/06/12 16:52:11;;;;;;;8.70;4.30;;;;;;;17.61;82.93;100086.55;3499709;79;98801;-87
2021/06/12 16:57:33;;;;;;;7.87;3.95;;;;;;;17.59;82.08;100091.78;3502080;81;31645;-84
2021/06/12 17:02:17;;;;;;;10.25;3.83;;;;;;;17.54;81.14;100108.22;3487666;81;98897;-87
2021/06/12 17:07:18;;;;;;;6.80;2.93;;;;;;;17.46;80.42;100111.76;3501131;82;29445;-86
2021/06/12 17:12:19;;;;;;;6.90;3.07;;;;;;;17.37;79.67;100113.50;3494684;81;98561;-85
2021/06/12 17:17:20;;;;;;;8.97;3.70;;;;;;;17.25;78.73;100128.07;3497824;81;28394;-85
2021/06/12 17:22:21;;;;;;;7.03;3.10;;;;;;;17.19;78.47;100129.19;3492136;80;99158;-85
2021/06/12 17:27:25;;;;;;;7.30;3.23;;;;;;;17.11;78.26;100136.09;3509148;82;25920;-85
2021/06/12 17:32:24;;;;;;;7.17;3.17;;;;;;;16.97;77.45;100142.55;3496405;80;98734;-87
2021/06/12 17:37:25;;;;;;;7.90;3.30;;;;;;;16.90;77.54;100156.59;3503831;81;26576;-84
2021/06/12 17:42:27;;;;;;;7.00;3.10;;;;;;;16.82;77.82;100171.81;3502394;79;98740;-87
2021/06/12 17:47:28;;;;;;;8.80;3.50;;;;;;;16.76;78.32;100163.78;3505937;82;26931;-87
2021/06/12 17:52:28;;;;;;;9.70;3.53;;;;;;;16.76;78.04;100154.06;3494651;81;98399;-85
2021/06/12 17:57:30;;;;;;;11.17;4.20;;;;;;;16.72;77.49;100156.11;3505604;82;25753;-86
2021/06/12 18:02:32;;;;;;;8.30;3.98;;;;;;;16.65;77.35;100172.91;3505776;82;98851;-87
2021/06/12 18:07:32;;;;;;;9.50;3.73;;;;;;;16.56;77.48;100167.14;3508005;82;26535;-87
2021/06/12 18:12:33;;;;;;;7.87;3.17;;;;;;;16.50;77.49;100170.19;3499699;81;98287;-85
2021/06/12 18:17:35;;;;;;;6.27;3.80;;;;;;;16.45;77.58;100177.65;3506780;82;34844;-87
2021/06/12 18:22:37;;;;;;;8.53;3.60;;;;;;;16.38;77.72;100178.52;3490247;81;99084;-86
2021/06/12 18:27:38;;;;;;;12.47;4.57;;;;;;;16.29;77.72;100186.58;3496762;82;26827;-86
2021/06/12 18:32:39;;;;;;;7.63;3.43;;;;;;;16.22;77.75;100197.02;3495833;80;98654;-87
2021/06/12 18:37:41;;;;;;;7.30;3.13;;;;;;;16.13;78.06;100203.09;3499638;81;34978;-88
2021/06/12 18:42:42;;;;;;;10.63;3.80;;;;;;;16.06;78.20;100199.63;3483802;82;98521;-87
2021/06/12 18:47:46;;;;;;;5.43;2.87;;;;;;;15.97;78.43;100213.27;3430485;83;28028;-87
2021/06/12 18:52:47;;;;;;;8.97;3.67;;;;;;;15.87;78.55;100212.19;3422621;82;26539;-87
2021/06/12 18:57:50;;;;;;;8.00;3.40;;;;;;;15.79;78.52;100224.61;3418177;83;99013;-90
2021/06/12 19:02:51;;;;;;;9.83;3.45;;;;;;;15.68;78.79;100219.80;3417659;83;29909;-89
2021/06/12 19:07:51;;;;;;;7.87;3.70;;;;;;;15.59;78.91;100221.51;3426860;83;108318;-89
2021/06/12 19:12:52;;;;;;;9.43;3.93;;;;;;;15.45;79.12;100230.79;3450632;82;25985;-89
2021/06/12 19:17:53;;;;;;;12.17;4.30;;;;;;;15.37;79.12;100224.36;3441016;84;99096;-88
2021/06/12 19:22:54;;;;;;;10.43;4.67;;;;;;;15.25;79.75;100234.53;3442388;82;25953;-88
2021/06/12 19:27:55;;;;;;;9.18;3.90;;;;;;;15.14;79.79;100229.70;3434363;82;99038;-88
2021/06/12 19:32:56;;;;;;;10.40;3.70;;;;;;;15.03;80.26;100234.57;3438287;83;35692;-89
2021/06/12 19:38:01;;;;;;;8.58;4.40;;;;;;;14.90;80.99;100245.41;3441557;83;99019;-88
2021/06/12 19:43:00;;;;;;;9.45;4.22;;;;;;;14.90;80.99;100245.41;3457328;81;34840;-88
2021/06/12 19:48:03;;;;;;;11.35;5.20;;;;;;;14.82;81.10;100242.50;3562323;80;98955;-88
2021/06/12 19:53:04;;;;;;;9.15;4.72;;;;;;;14.85;81.73;100264.45;3571846;80;35421;-88
2021/06/12 19:58:06;;;;;;;12.43;6.33;;;;;;;14.82;82.18;100277.13;3565073;80;98622;-87
2021/06/12 20:03:07;;;;;;;14.57;5.83;;;;;;;14.80;83.23;100285.08;3570739;81;27705;-89
2021/06/12 20:08:07;;;;;;;13.03;5.70;;;;;;;14.75;84.43;100293.82;3558618;81;99150;-87
2021/06/12 20:13:08;;;;;;;10.57;5.30;;;;;;;14.71;84.92;100290.28;3571966;81;25870;-86
2021/06/12 20:18:09;;;;;;;10.43;4.75;;;;;;;14.72;85.05;100289.09;3564160;81;99143;-86
2021/06/12 20:23:10;;;;;;;11.40;4.53;;;;;;;14.74;85.31;100301.15;3562118;80;33279;-87
2021/06/12 20:28:12;;;;;;;6.53;3.65;;;;;;;14.75;85.61;100315.19;3559657;80;98757;-87
2021/06/12 20:33:13;;;;;;;7.80;3.93;;;;;;;14.71;85.64;100316.59;3564822;80;33217;-87
2021/06/12 20:38:15;;;;;;;7.50;3.43;;;;;;;14.70;85.64;100313.64;3531011;80;98962;-88
2021/06/12 20:43:18;;;;;;;5.57;2.93;;;;;;;14.70;85.34;100323.92;3562352;81;32646;-88
2021/06/12 20:48:19;;;;;;;6.37;2.97;;;;;;;14.67;84.95;100333.84;3534283;80;98695;-87
2021/06/12 20:53:20;;;;;;;6.23;3.20;;;;;;;14.60;84.75;100353.28;3569447;80;27536;-88
2021/06/12 20:58:21;;;;;;;7.97;2.90;;;;;;;14.54;84.10;100362.41;3552410;81;98930;-88
2021/06/12 21:03:22;;;;;;;7.63;3.20;;;;;;;14.43;83.85;100361.10;3562407;81;26295;-87
2021/06/12 21:08:27;;;;;;;5.65;2.52;;;;;;;14.31;83.54;100370.45;3555844;81;99160;-87
2021/06/12 21:13:31;;;;;;;6.10;2.60;;;;;;;14.21;83.43;100375.45;3537522;80;35310;-88
2021/06/12 21:18:40;;;;;;;5.08;2.80;;;;;;;14.13;83.22;100371.12;3542082;80;98987;-87
2021/06/12 21:23:42;;;;;;;7.22;2.92;;;;;;;14.03;83.24;100385.78;3571594;79;33936;-88
2021/06/12 21:28:43;;;;;;;7.72;2.92;;;;;;;13.81;83.46;100391.98;3558760;80;99271;-86
2021/06/12 21:33:44;;;;;;;6.33;3.27;;;;;;;13.81;83.46;100391.98;3567516;81;26359;-88
2021/06/12 21:38:50;;;;;;;8.60;3.23;;;;;;;13.73;83.32;100389.64;3554288;80;98571;-88
2021/06/12 21:43:51;;;;;;;8.40;3.37;;;;;;;13.58;83.32;100367.34;3550353;81;26604;-88
2021/06/12 21:48:52;;;;;;;9.90;3.20;;;;;;;13.64;83.38;100389.25;3432303;83;98719;-88
2021/06/12 21:53:54;;;;;;;8.77;3.43;;;;;;;13.55;83.43;100391.62;3437734;82;32052;-89
2021/06/12 21:58:55;;;;;;;8.63;3.57;;;;;;;13.44;83.80;100395.80;3414985;82;99040;-86
2021/06/12 22:03:56;;;;;;;7.40;3.27;;;;;;;13.36;83.70;100397.59;3444182;83;30740;-88
2021/06/12 22:08:57;;;;;;;9.03;3.00;;;;;;;13.32;83.67;100407.84;3440004;82;98963;-86
2021/06/12 22:13:58;;;;;;;7.80;3.20;;;;;;;13.27;83.97;100415.16;3433568;84;27506;-87
2021/06/12 22:19:02;;;;;;;10.13;3.20;;;;;;;13.16;83.94;100415.74;3438567;82;98845;-87
2021/06/12 22:24:04;;;;;;;9.65;4.10;;;;;;;13.08;84.09;100425.23;3439536;84;34946;-87
2021/06/12 22:29:06;;;;;;;6.67;3.25;;;;;;;12.99;84.57;100425.61;3435038;82;98603;-87
2021/06/12 22:34:09;;;;;;;9.70;3.67;;;;;;;12.90;84.43;100443.12;3438865;84;33006;-89
2021/06/12 22:39:13;;;;;;;7.78;3.35;;;;;;;12.86;84.54;100436.79;3441631;81;98658;-89
2021/06/12 22:44:16;;;;;;;9.83;3.45;;;;;;;12.77;84.76;100436.97;3450612;82;34123;-88
2021/06/12 22:49:17;;;;;;;8.13;3.42;;;;;;;12.66;84.78;100435.58;3516672;82;99041;-87
2021/06/12 22:54:18;;;;;;;11.20;3.30;;;;;;;12.62;84.76;100449.95;3518236;81;27426;-88
2021/06/12 22:59:18;;;;;;;7.70;3.40;;;;;;;12.55;84.88;100456.84;3494045;82;99041;-87
2021/06/12 23:04:19;;;;;;;10.67;3.73;;;;;;;12.48;85.08;100459.56;3522871;81;27403;-88
2021/06/12 23:09:21;;;;;;;7.50;3.83;;;;;;;12.31;84.79;100448.47;3515547;82;99171;-87
2021/06/12 23:14:22;;;;;;;9.83;3.70;;;;;;;12.38;85.13;100468.58;3526853;81;33180;-87
2021/06/12 23:19:23;;;;;;;12.30;4.03;;;;;;;12.33;85.04;100470.94;3517492;82;98603;-87
2021/06/12 23:24:24;;;;;;;9.47;3.97;;;;;;;12.31;85.44;100477.45;3513541;82;32845;-88